sensor_id;sensor_type;location;lat;lon;timestamp;P1;durP1;ratioP1;P2;durP2;ratioP2
10596;SDS011;5346;48.766;8.674;2023-12-14T00:01:23;3.73;;;1.40;;
10596;SDS011;5346;48.766;8.674;2023-12-14T00:03:51;1.50;;;1.20;;
10596;SDS011;5346;48.766;8.674;2023-12-14T00:06:21;2.43;;;1.33;;
10596;SDS011;5346;48.766;8.674;2023-12-14T00:08:55;1.63;;;1.23;;
10596;SDS011;5346;48.766;8.674;2023-12-14T00:11:23;1.50;;;1.20;;
10596;SDS011;5346;48.766;8.674;2023-12-14T00:14:04;4.37;;;1.40;;
10596;SDS011;5346;48.766;8.674;2023-12-14T00:16:32;3.50;;;1.43;;
10596;SDS011;5346;48.766;8.674;2023-12-14T00:19:10;2.10;;;1.47;;
10596;SDS011;5346;48.766;8.674;2023-12-14T00:21:40;1.27;;;1.10;;
10596;SDS011;5346;48.766;8.674;2023-12-14T00:24:14;4.20;;;1.20;;
10596;SDS011;5346;48.766;8.674;2023-12-14T00:26:41;3.07;;;1.20;;
10596;SDS011;5346;48.766;8.674;2023-12-14T00:29:16;1.53;;;1.00;;
10596;SDS011;5346;48.766;8.674;2023-12-14T00:31:43;4.20;;;1.40;;
10596;SDS011;5346;48.766;8.674;2023-12-14T00:34:18;1.47;;;1.37;;
10596;SDS011;5346;48.766;8.674;2023-12-14T00:36:45;1.70;;;1.00;;
10596;SDS011;5346;48.766;8.674;2023-12-14T00:39:13;4.10;;;1.33;;
10596;SDS011;5346;48.766;8.674;2023-12-14T00:41:47;3.30;;;1.40;;
10596;SDS011;5346;48.766;8.674;2023-12-14T00:44:14;1.63;;;1.30;;
10596;SDS011;5346;48.766;8.674;2023-12-14T00:46:47;2.03;;;1.07;;
10596;SDS011;5346;48.766;8.674;2023-12-14T00:49:21;1.47;;;1.17;;
10596;SDS011;5346;48.766;8.674;2023-12-14T00:51:48;1.83;;;1.20;;
10596;SDS011;5346;48.766;8.674;2023-12-14T00:54:23;1.20;;;1.00;;
10596;SDS011;5346;48.766;8.674;2023-12-14T00:56:50;6.73;;;1.60;;
10596;SDS011;5346;48.766;8.674;2023-12-14T00:59:25;1.50;;;1.13;;
10596;SDS011;5346;48.766;8.674;2023-12-14T01:01:55;3.57;;;1.07;;
10596;SDS011;5346;48.766;8.674;2023-12-14T01:04:29;1.70;;;1.10;;
10596;SDS011;5346;48.766;8.674;2023-12-14T01:06:59;4.20;;;1.13;;
10596;SDS011;5346;48.766;8.674;2023-12-14T01:09:33;4.60;;;1.20;;
10596;SDS011;5346;48.766;8.674;2023-12-14T01:12:02;0.93;;;0.93;;
10596;SDS011;5346;48.766;8.674;2023-12-14T01:14:30;3.10;;;0.90;;
10596;SDS011;5346;48.766;8.674;2023-12-14T01:17:04;3.03;;;0.93;;
10596;SDS011;5346;48.766;8.674;2023-12-14T01:19:41;2.07;;;0.80;;
10596;SDS011;5346;48.766;8.674;2023-12-14T01:22:17;2.67;;;1.00;;
10596;SDS011;5346;48.766;8.674;2023-12-14T01:24:55;3.30;;;1.10;;
10596;SDS011;5346;48.766;8.674;2023-12-14T01:27:30;3.70;;;1.07;;
10596;SDS011;5346;48.766;8.674;2023-12-14T01:30:06;1.80;;;1.00;;
10596;SDS011;5346;48.766;8.674;2023-12-14T01:32:34;1.40;;;1.10;;
10596;SDS011;5346;48.766;8.674;2023-12-14T01:35:02;2.63;;;1.00;;
10596;SDS011;5346;48.766;8.674;2023-12-14T01:37:37;2.03;;;1.10;;
10596;SDS011;5346;48.766;8.674;2023-12-14T01:40:12;3.73;;;1.30;;
10596;SDS011;5346;48.766;8.674;2023-12-14T01:42:46;1.57;;;1.07;;
10596;SDS011;5346;48.766;8.674;2023-12-14T01:45:20;1.43;;;1.00;;
10596;SDS011;5346;48.766;8.674;2023-12-14T01:48:00;33.30;;;2.87;;
10596;SDS011;5346;48.766;8.674;2023-12-14T01:50:35;3.03;;;1.00;;
10596;SDS011;5346;48.766;8.674;2023-12-14T01:53:03;42.83;;;3.77;;
10596;SDS011;5346;48.766;8.674;2023-12-14T01:55:30;28.73;;;3.63;;
10596;SDS011;5346;48.766;8.674;2023-12-14T01:58:05;85.03;;;4.80;;
10596;SDS011;5346;48.766;8.674;2023-12-14T02:00:40;148.73;;;10.03;;
10596;SDS011;5346;48.766;8.674;2023-12-14T02:03:25;170.10;;;7.00;;
10596;SDS011;5346;48.766;8.674;2023-12-14T02:06:00;14.33;;;1.57;;
10596;SDS011;5346;48.766;8.674;2023-12-14T02:08:27;0.80;;;0.80;;
10596;SDS011;5346;48.766;8.674;2023-12-14T02:11:03;1.37;;;1.00;;
10596;SDS011;5346;48.766;8.674;2023-12-14T02:13:32;4.50;;;1.10;;
10596;SDS011;5346;48.766;8.674;2023-12-14T02:16:13;2.60;;;1.13;;
10596;SDS011;5346;48.766;8.674;2023-12-14T02:18:49;5.13;;;1.20;;
10596;SDS011;5346;48.766;8.674;2023-12-14T02:21:17;1.70;;;1.50;;
10596;SDS011;5346;48.766;8.674;2023-12-14T02:23:49;6.23;;;1.37;;
10596;SDS011;5346;48.766;8.674;2023-12-14T02:26:27;4.27;;;1.50;;
10596;SDS011;5346;48.766;8.674;2023-12-14T02:28:54;4.60;;;1.63;;
10596;SDS011;5346;48.766;8.674;2023-12-14T02:31:29;3.57;;;1.57;;
10596;SDS011;5346;48.766;8.674;2023-12-14T02:33:57;2.50;;;1.53;;
10596;SDS011;5346;48.766;8.674;2023-12-14T02:36:24;3.77;;;1.90;;
10596;SDS011;5346;48.766;8.674;2023-12-14T02:38:59;4.20;;;1.97;;
10596;SDS011;5346;48.766;8.674;2023-12-14T02:41:27;3.93;;;1.90;;
10596;SDS011;5346;48.766;8.674;2023-12-14T02:44:01;4.20;;;1.90;;
10596;SDS011;5346;48.766;8.674;2023-12-14T02:46:28;2.80;;;2.10;;
10596;SDS011;5346;48.766;8.674;2023-12-14T02:49:10;2.37;;;1.80;;
10596;SDS011;5346;48.766;8.674;2023-12-14T02:51:37;3.53;;;2.00;;
10596;SDS011;5346;48.766;8.674;2023-12-14T02:54:12;4.27;;;2.17;;
10596;SDS011;5346;48.766;8.674;2023-12-14T02:56:46;5.50;;;2.40;;
10596;SDS011;5346;48.766;8.674;2023-12-14T02:59:20;2.83;;;2.50;;
10596;SDS011;5346;48.766;8.674;2023-12-14T03:01:47;5.07;;;2.20;;
10596;SDS011;5346;48.766;8.674;2023-12-14T03:04:26;5.33;;;2.43;;
10596;SDS011;5346;48.766;8.674;2023-12-14T03:06:55;4.33;;;2.00;;
10596;SDS011;5346;48.766;8.674;2023-12-14T03:09:23;3.00;;;2.37;;
10596;SDS011;5346;48.766;8.674;2023-12-14T03:11:58;5.27;;;2.33;;
10596;SDS011;5346;48.766;8.674;2023-12-14T03:14:31;2.40;;;2.10;;
10596;SDS011;5346;48.766;8.674;2023-12-14T03:17:07;2.67;;;1.73;;
10596;SDS011;5346;48.766;8.674;2023-12-14T03:19:39;6.57;;;2.10;;
10596;SDS011;5346;48.766;8.674;2023-12-14T03:22:17;2.10;;;1.77;;
10596;SDS011;5346;48.766;8.674;2023-12-14T03:24:45;2.30;;;1.70;;
10596;SDS011;5346;48.766;8.674;2023-12-14T03:27:12;2.57;;;2.00;;
10596;SDS011;5346;48.766;8.674;2023-12-14T03:29:47;3.80;;;2.03;;
10596;SDS011;5346;48.766;8.674;2023-12-14T03:32:15;3.87;;;1.87;;
10596;SDS011;5346;48.766;8.674;2023-12-14T03:34:49;2.97;;;1.80;;
10596;SDS011;5346;48.766;8.674;2023-12-14T03:37:17;2.10;;;1.83;;
10596;SDS011;5346;48.766;8.674;2023-12-14T03:39:51;3.13;;;1.90;;
10596;SDS011;5346;48.766;8.674;2023-12-14T03:42:28;3.33;;;2.00;;
10596;SDS011;5346;48.766;8.674;2023-12-14T03:44:56;2.70;;;1.70;;
10596;SDS011;5346;48.766;8.674;2023-12-14T03:47:24;3.30;;;1.63;;
10596;SDS011;5346;48.766;8.674;2023-12-14T03:50:06;2.53;;;1.73;;
10596;SDS011;5346;48.766;8.674;2023-12-14T03:52:37;1.30;;;1.20;;
10596;SDS011;5346;48.766;8.674;2023-12-14T03:55:14;2.30;;;1.30;;
10596;SDS011;5346;48.766;8.674;2023-12-14T03:57:42;1.70;;;1.40;;
10596;SDS011;5346;48.766;8.674;2023-12-14T04:00:16;2.27;;;1.50;;
10596;SDS011;5346;48.766;8.674;2023-12-14T04:02:50;1.37;;;1.20;;
10596;SDS011;5346;48.766;8.674;2023-12-14T04:05:24;1.60;;;1.30;;
10596;SDS011;5346;48.766;8.674;2023-12-14T04:07:59;2.43;;;1.10;;
10596;SDS011;5346;48.766;8.674;2023-12-14T04:10:36;3.43;;;1.43;;
10596;SDS011;5346;48.766;8.674;2023-12-14T04:13:23;2.90;;;1.20;;
10596;SDS011;5346;48.766;8.674;2023-12-14T04:15:57;7.10;;;1.57;;
10596;SDS011;5346;48.766;8.674;2023-12-14T04:18:25;1.67;;;1.30;;
10596;SDS011;5346;48.766;8.674;2023-12-14T04:21:01;2.97;;;1.13;;
10596;SDS011;5346;48.766;8.674;2023-12-14T04:23:36;1.30;;;1.10;;
10596;SDS011;5346;48.766;8.674;2023-12-14T04:26:06;1.70;;;1.10;;
10596;SDS011;5346;48.766;8.674;2023-12-14T04:28:42;1.33;;;1.23;;
10596;SDS011;5346;48.766;8.674;2023-12-14T04:31:19;1.83;;;1.30;;
10596;SDS011;5346;48.766;8.674;2023-12-14T04:33:46;1.97;;;1.67;;
10596;SDS011;5346;48.766;8.674;2023-12-14T04:36:21;4.27;;;2.00;;
10596;SDS011;5346;48.766;8.674;2023-12-14T04:38:48;12.30;;;2.73;;
10596;SDS011;5346;48.766;8.674;2023-12-14T04:41:23;4.60;;;2.30;;
10596;SDS011;5346;48.766;8.674;2023-12-14T04:43:51;3.30;;;2.10;;
10596;SDS011;5346;48.766;8.674;2023-12-14T04:46:26;36.67;;;3.63;;
10596;SDS011;5346;48.766;8.674;2023-12-14T04:49:06;8.40;;;2.13;;
10596;SDS011;5346;48.766;8.674;2023-12-14T04:51:41;2.50;;;1.63;;
10596;SDS011;5346;48.766;8.674;2023-12-14T04:54:09;4.03;;;2.17;;
10596;SDS011;5346;48.766;8.674;2023-12-14T04:56:46;1.80;;;1.60;;
10596;SDS011;5346;48.766;8.674;2023-12-14T04:59:14;3.93;;;1.60;;
10596;SDS011;5346;48.766;8.674;2023-12-14T05:01:41;15.83;;;4.13;;
10596;SDS011;5346;48.766;8.674;2023-12-14T05:04:16;4.93;;;2.67;;
10596;SDS011;5346;48.766;8.674;2023-12-14T05:06:43;8.57;;;3.33;;
10596;SDS011;5346;48.766;8.674;2023-12-14T05:09:18;1.67;;;1.50;;
10596;SDS011;5346;48.766;8.674;2023-12-14T05:11:45;1.90;;;1.43;;
10596;SDS011;5346;48.766;8.674;2023-12-14T05:14:19;1.57;;;1.43;;
10596;SDS011;5346;48.766;8.674;2023-12-14T05:16:53;1.40;;;1.20;;
10596;SDS011;5346;48.766;8.674;2023-12-14T05:19:20;1.30;;;1.10;;
10596;SDS011;5346;48.766;8.674;2023-12-14T05:21:56;1.17;;;1.00;;
10596;SDS011;5346;48.766;8.674;2023-12-14T05:24:30;0.97;;;0.90;;
10596;SDS011;5346;48.766;8.674;2023-12-14T05:26:58;2.00;;;1.10;;
10596;SDS011;5346;48.766;8.674;2023-12-14T05:29:33;1.10;;;0.93;;
10596;SDS011;5346;48.766;8.674;2023-12-14T05:32:13;1.00;;;0.80;;
10596;SDS011;5346;48.766;8.674;2023-12-14T05:34:47;1.03;;;0.77;;
10596;SDS011;5346;48.766;8.674;2023-12-14T05:37:16;0.43;;;0.43;;
10596;SDS011;5346;48.766;8.674;2023-12-14T05:39:53;2.10;;;0.60;;
10596;SDS011;5346;48.766;8.674;2023-12-14T05:42:21;0.60;;;0.60;;
10596;SDS011;5346;48.766;8.674;2023-12-14T05:44:58;0.40;;;0.40;;
10596;SDS011;5346;48.766;8.674;2023-12-14T05:47:26;0.40;;;0.37;;
10596;SDS011;5346;48.766;8.674;2023-12-14T05:50:09;0.40;;;0.40;;
10596;SDS011;5346;48.766;8.674;2023-12-14T05:52:45;0.47;;;0.43;;
10596;SDS011;5346;48.766;8.674;2023-12-14T05:55:13;0.27;;;0.27;;
10596;SDS011;5346;48.766;8.674;2023-12-14T05:57:48;0.60;;;0.60;;
10596;SDS011;5346;48.766;8.674;2023-12-14T06:00:15;0.30;;;0.30;;
10596;SDS011;5346;48.766;8.674;2023-12-14T06:03:00;0.20;;;0.20;;
10596;SDS011;5346;48.766;8.674;2023-12-14T06:05:30;0.30;;;0.30;;
10596;SDS011;5346;48.766;8.674;2023-12-14T06:08:04;0.70;;;0.40;;
10596;SDS011;5346;48.766;8.674;2023-12-14T06:10:38;0.20;;;0.20;;
10596;SDS011;5346;48.766;8.674;2023-12-14T06:13:06;0.57;;;0.30;;
10596;SDS011;5346;48.766;8.674;2023-12-14T06:15:42;0.23;;;0.23;;
10596;SDS011;5346;48.766;8.674;2023-12-14T06:18:10;0.50;;;0.30;;
10596;SDS011;5346;48.766;8.674;2023-12-14T06:20:44;0.10;;;0.10;;
10596;SDS011;5346;48.766;8.674;2023-12-14T06:23:20;0.33;;;0.33;;
10596;SDS011;5346;48.766;8.674;2023-12-14T06:25:55;0.53;;;0.40;;
10596;SDS011;5346;48.766;8.674;2023-12-14T06:28:22;0.50;;;0.30;;
10596;SDS011;5346;48.766;8.674;2023-12-14T06:30:57;0.37;;;0.37;;
10596;SDS011;5346;48.766;8.674;2023-12-14T06:33:31;0.80;;;0.30;;
10596;SDS011;5346;48.766;8.674;2023-12-14T06:36:05;0.50;;;0.50;;
10596;SDS011;5346;48.766;8.674;2023-12-14T06:38:43;2.57;;;0.80;;
10596;SDS011;5346;48.766;8.674;2023-12-14T06:41:20;1.03;;;0.90;;
10596;SDS011;5346;48.766;8.674;2023-12-14T06:43:50;1.50;;;1.30;;
10596;SDS011;5346;48.766;8.674;2023-12-14T06:46:31;4.53;;;2.10;;
10596;SDS011;5346;48.766;8.674;2023-12-14T06:49:12;4.70;;;2.83;;
10596;SDS011;5346;48.766;8.674;2023-12-14T06:51:46;14.23;;;3.10;;
10596;SDS011;5346;48.766;8.674;2023-12-14T06:54:18;5.57;;;3.03;;
10596;SDS011;5346;48.766;8.674;2023-12-14T06:56:52;5.33;;;3.43;;
10596;SDS011;5346;48.766;8.674;2023-12-14T06:59:26;4.70;;;3.13;;
10596;SDS011;5346;48.766;8.674;2023-12-14T07:02:01;6.57;;;3.03;;
10596;SDS011;5346;48.766;8.674;2023-12-14T07:04:28;4.43;;;3.00;;
10596;SDS011;5346;48.766;8.674;2023-12-14T07:07:03;5.97;;;4.00;;
10596;SDS011;5346;48.766;8.674;2023-12-14T07:09:37;6.13;;;4.10;;
10596;SDS011;5346;48.766;8.674;2023-12-14T07:12:11;8.53;;;4.27;;
10596;SDS011;5346;48.766;8.674;2023-12-14T07:14:46;7.30;;;5.20;;
10596;SDS011;5346;48.766;8.674;2023-12-14T07:17:20;10.30;;;5.60;;
10596;SDS011;5346;48.766;8.674;2023-12-14T07:19:49;11.87;;;5.97;;
10596;SDS011;5346;48.766;8.674;2023-12-14T07:22:26;9.27;;;6.10;;
10596;SDS011;5346;48.766;8.674;2023-12-14T07:24:53;13.27;;;6.63;;
10596;SDS011;5346;48.766;8.674;2023-12-14T07:27:28;12.10;;;6.60;;
10596;SDS011;5346;48.766;8.674;2023-12-14T07:30:09;7.27;;;4.87;;
10596;SDS011;5346;48.766;8.674;2023-12-14T07:32:46;8.87;;;3.60;;
10596;SDS011;5346;48.766;8.674;2023-12-14T07:35:20;5.47;;;3.50;;
10596;SDS011;5346;48.766;8.674;2023-12-14T07:37:48;3.90;;;2.87;;
10596;SDS011;5346;48.766;8.674;2023-12-14T07:40:22;6.17;;;2.90;;
10596;SDS011;5346;48.766;8.674;2023-12-14T07:42:50;4.87;;;3.00;;
10596;SDS011;5346;48.766;8.674;2023-12-14T07:45:24;7.20;;;2.67;;
10596;SDS011;5346;48.766;8.674;2023-12-14T07:47:58;4.77;;;2.40;;
10596;SDS011;5346;48.766;8.674;2023-12-14T07:50:37;5.00;;;2.60;;
10596;SDS011;5346;48.766;8.674;2023-12-14T07:53:11;4.50;;;2.20;;
10596;SDS011;5346;48.766;8.674;2023-12-14T07:55:39;5.33;;;2.77;;
10596;SDS011;5346;48.766;8.674;2023-12-14T07:58:13;7.53;;;2.43;;
10596;SDS011;5346;48.766;8.674;2023-12-14T08:00:47;5.13;;;2.20;;
10596;SDS011;5346;48.766;8.674;2023-12-14T08:03:23;5.80;;;2.40;;
10596;SDS011;5346;48.766;8.674;2023-12-14T08:05:58;3.03;;;1.90;;
10596;SDS011;5346;48.766;8.674;2023-12-14T08:08:26;5.20;;;1.70;;
10596;SDS011;5346;48.766;8.674;2023-12-14T08:11:00;7.13;;;2.23;;
10596;SDS011;5346;48.766;8.674;2023-12-14T08:13:29;6.13;;;2.20;;
10596;SDS011;5346;48.766;8.674;2023-12-14T08:15:57;8.43;;;1.90;;
10596;SDS011;5346;48.766;8.674;2023-12-14T08:18:31;6.13;;;2.03;;
10596;SDS011;5346;48.766;8.674;2023-12-14T08:20:59;7.43;;;1.97;;
10596;SDS011;5346;48.766;8.674;2023-12-14T08:23:40;4.10;;;1.77;;
10596;SDS011;5346;48.766;8.674;2023-12-14T08:26:08;3.97;;;1.40;;
10596;SDS011;5346;48.766;8.674;2023-12-14T08:28:44;3.40;;;1.43;;
10596;SDS011;5346;48.766;8.674;2023-12-14T08:31:12;7.73;;;1.67;;
10596;SDS011;5346;48.766;8.674;2023-12-14T08:33:50;4.70;;;1.87;;
10596;SDS011;5346;48.766;8.674;2023-12-14T08:36:19;2.90;;;2.17;;
10596;SDS011;5346;48.766;8.674;2023-12-14T08:38:56;7.20;;;1.97;;
10596;SDS011;5346;48.766;8.674;2023-12-14T08:41:23;4.40;;;1.90;;
10596;SDS011;5346;48.766;8.674;2023-12-14T08:43:52;5.47;;;1.97;;
10596;SDS011;5346;48.766;8.674;2023-12-14T08:46:37;5.10;;;2.07;;
10596;SDS011;5346;48.766;8.674;2023-12-14T08:49:16;4.03;;;1.93;;
10596;SDS011;5346;48.766;8.674;2023-12-14T08:51:58;3.57;;;1.90;;
10596;SDS011;5346;48.766;8.674;2023-12-14T08:54:27;2.20;;;1.87;;
10596;SDS011;5346;48.766;8.674;2023-12-14T08:57:01;6.30;;;1.93;;
10596;SDS011;5346;48.766;8.674;2023-12-14T08:59:35;4.30;;;2.10;;
10596;SDS011;5346;48.766;8.674;2023-12-14T09:02:13;5.77;;;2.27;;
10596;SDS011;5346;48.766;8.674;2023-12-14T09:04:42;4.93;;;2.13;;
10596;SDS011;5346;48.766;8.674;2023-12-14T09:07:10;3.60;;;2.30;;
10596;SDS011;5346;48.766;8.674;2023-12-14T09:09:46;2.37;;;2.13;;
10596;SDS011;5346;48.766;8.674;2023-12-14T09:12:20;4.07;;;2.40;;
10596;SDS011;5346;48.766;8.674;2023-12-14T09:14:48;4.93;;;2.67;;
10596;SDS011;5346;48.766;8.674;2023-12-14T09:17:22;3.77;;;2.47;;
10596;SDS011;5346;48.766;8.674;2023-12-14T09:19:50;5.47;;;2.80;;
10596;SDS011;5346;48.766;8.674;2023-12-14T09:22:25;4.60;;;3.47;;
10596;SDS011;5346;48.766;8.674;2023-12-14T09:24:53;3.77;;;2.57;;
10596;SDS011;5346;48.766;8.674;2023-12-14T09:27:27;4.17;;;3.13;;
10596;SDS011;5346;48.766;8.674;2023-12-14T09:30:03;6.33;;;3.53;;
10596;SDS011;5346;48.766;8.674;2023-12-14T09:32:38;4.37;;;3.23;;
10596;SDS011;5346;48.766;8.674;2023-12-14T09:35:07;5.27;;;2.87;;
10596;SDS011;5346;48.766;8.674;2023-12-14T09:37:41;3.80;;;3.33;;
10596;SDS011;5346;48.766;8.674;2023-12-14T09:40:16;5.70;;;3.03;;
10596;SDS011;5346;48.766;8.674;2023-12-14T09:42:51;3.60;;;3.00;;
10596;SDS011;5346;48.766;8.674;2023-12-14T09:45:27;7.43;;;2.93;;
10596;SDS011;5346;48.766;8.674;2023-12-14T09:48:04;3.03;;;2.43;;
10596;SDS011;5346;48.766;8.674;2023-12-14T09:50:39;4.67;;;2.63;;
10596;SDS011;5346;48.766;8.674;2023-12-14T09:53:08;5.93;;;2.73;;
10596;SDS011;5346;48.766;8.674;2023-12-14T09:55:43;3.30;;;2.20;;
10596;SDS011;5346;48.766;8.674;2023-12-14T09:58:11;3.35;;;2.00;;
10596;SDS011;5346;48.766;8.674;2023-12-14T10:00:46;3.58;;;2.10;;
10596;SDS011;5346;48.766;8.674;2023-12-14T10:06:01;2.85;;;2.08;;
10596;SDS011;5346;48.766;8.674;2023-12-14T10:08:30;2.47;;;1.95;;
10596;SDS011;5346;48.766;8.674;2023-12-14T10:11:05;4.30;;;2.20;;
10596;SDS011;5346;48.766;8.674;2023-12-14T10:13:49;2.10;;;1.90;;
10596;SDS011;5346;48.766;8.674;2023-12-14T10:16:30;3.27;;;2.10;;
10596;SDS011;5346;48.766;8.674;2023-12-14T10:19:05;2.88;;;2.33;;
10596;SDS011;5346;48.766;8.674;2023-12-14T10:21:36;2.17;;;1.98;;
10596;SDS011;5346;48.766;8.674;2023-12-14T10:24:11;5.90;;;1.90;;
10596;SDS011;5346;48.766;8.674;2023-12-14T10:26:46;3.65;;;2.08;;
10596;SDS011;5346;48.766;8.674;2023-12-14T10:29:23;1.92;;;1.73;;
10596;SDS011;5346;48.766;8.674;2023-12-14T10:31:58;2.33;;;1.83;;
10596;SDS011;5346;48.766;8.674;2023-12-14T10:34:33;2.22;;;1.70;;
10596;SDS011;5346;48.766;8.674;2023-12-14T10:37:06;5.25;;;1.98;;
10596;SDS011;5346;48.766;8.674;2023-12-14T10:39:42;6.15;;;1.95;;
10596;SDS011;5346;48.766;8.674;2023-12-14T10:42:10;2.92;;;2.03;;
10596;SDS011;5346;48.766;8.674;2023-12-14T10:44:48;2.00;;;1.80;;
10596;SDS011;5346;48.766;8.674;2023-12-14T10:47:50;2.00;;;1.67;;
10596;SDS011;5346;48.766;8.674;2023-12-14T10:50:31;2.40;;;1.97;;
10596;SDS011;5346;48.766;8.674;2023-12-14T10:53:07;1.60;;;1.50;;
10596;SDS011;5346;48.766;8.674;2023-12-14T10:55:43;2.23;;;1.80;;
10596;SDS011;5346;48.766;8.674;2023-12-14T10:58:11;3.23;;;2.00;;
10596;SDS011;5346;48.766;8.674;2023-12-14T11:00:57;5.63;;;2.27;;
10596;SDS011;5346;48.766;8.674;2023-12-14T11:03:34;3.07;;;2.40;;
10596;SDS011;5346;48.766;8.674;2023-12-14T11:06:02;3.97;;;2.60;;
10596;SDS011;5346;48.766;8.674;2023-12-14T11:08:48;2.70;;;2.40;;
10596;SDS011;5346;48.766;8.674;2023-12-14T11:11:19;3.13;;;2.83;;
10596;SDS011;5346;48.766;8.674;2023-12-14T11:13:50;3.70;;;2.80;;
10596;SDS011;5346;48.766;8.674;2023-12-14T11:16:26;3.50;;;3.20;;
10596;SDS011;5346;48.766;8.674;2023-12-14T11:24:51;3.88;;;2.60;;
10596;SDS011;5346;48.766;8.674;2023-12-14T11:27:29;2.47;;;2.17;;
10596;SDS011;5346;48.766;8.674;2023-12-14T11:30:16;3.38;;;2.22;;
10596;SDS011;5346;48.766;8.674;2023-12-14T11:33:00;4.43;;;2.28;;
10596;SDS011;5346;48.766;8.674;2023-12-14T11:35:34;3.05;;;2.65;;
10596;SDS011;5346;48.766;8.674;2023-12-14T11:38:15;3.20;;;2.50;;
10596;SDS011;5346;48.766;8.674;2023-12-14T11:40:44;2.92;;;2.40;;
10596;SDS011;5346;48.766;8.674;2023-12-14T11:43:19;3.63;;;2.70;;
10596;SDS011;5346;48.766;8.674;2023-12-14T11:45:48;4.72;;;2.92;;
10596;SDS011;5346;48.766;8.674;2023-12-14T11:48:28;5.70;;;2.60;;
10596;SDS011;5346;48.766;8.674;2023-12-14T11:50:56;3.00;;;2.67;;
10596;SDS011;5346;48.766;8.674;2023-12-14T11:53:30;2.87;;;2.53;;
10596;SDS011;5346;48.766;8.674;2023-12-14T11:56:00;3.07;;;2.60;;
10596;SDS011;5346;48.766;8.674;2023-12-14T11:58:41;5.57;;;2.47;;
10596;SDS011;5346;48.766;8.674;2023-12-14T12:01:16;3.83;;;2.80;;
10596;SDS011;5346;48.766;8.674;2023-12-14T12:03:52;6.03;;;3.13;;
10596;SDS011;5346;48.766;8.674;2023-12-14T12:06:27;4.40;;;2.93;;
10596;SDS011;5346;48.766;8.674;2023-12-14T12:09:02;5.60;;;3.37;;
10596;SDS011;5346;48.766;8.674;2023-12-14T12:11:34;5.47;;;3.17;;
10596;SDS011;5346;48.766;8.674;2023-12-14T12:14:10;4.53;;;2.67;;
10596;SDS011;5346;48.766;8.674;2023-12-14T12:16:37;5.13;;;2.80;;
10596;SDS011;5346;48.766;8.674;2023-12-14T12:19:11;4.33;;;2.40;;
10596;SDS011;5346;48.766;8.674;2023-12-14T12:21:39;2.37;;;2.13;;
10596;SDS011;5346;48.766;8.674;2023-12-14T12:24:14;5.83;;;2.60;;
10596;SDS011;5346;48.766;8.674;2023-12-14T12:26:53;2.30;;;2.10;;
10596;SDS011;5346;48.766;8.674;2023-12-14T12:29:28;2.90;;;2.20;;
10596;SDS011;5346;48.766;8.674;2023-12-14T12:31:58;2.77;;;2.20;;
10596;SDS011;5346;48.766;8.674;2023-12-14T12:34:26;4.63;;;2.37;;
10596;SDS011;5346;48.766;8.674;2023-12-14T12:37:00;3.53;;;2.30;;
10596;SDS011;5346;48.766;8.674;2023-12-14T12:39:36;3.43;;;2.70;;
10596;SDS011;5346;48.766;8.674;2023-12-14T12:42:12;4.77;;;3.20;;
10596;SDS011;5346;48.766;8.674;2023-12-14T12:44:49;3.50;;;2.90;;
10596;SDS011;5346;48.766;8.674;2023-12-14T12:47:32;4.60;;;3.30;;
10596;SDS011;5346;48.766;8.674;2023-12-14T12:50:13;4.70;;;3.70;;
10596;SDS011;5346;48.766;8.674;2023-12-14T12:52:43;4.70;;;3.63;;
10596;SDS011;5346;48.766;8.674;2023-12-14T12:55:21;5.90;;;4.63;;
10596;SDS011;5346;48.766;8.674;2023-12-14T12:57:55;6.87;;;4.73;;
10596;SDS011;5346;48.766;8.674;2023-12-14T13:00:31;8.57;;;4.83;;
10596;SDS011;5346;48.766;8.674;2023-12-14T13:03:08;6.43;;;4.77;;
10596;SDS011;5346;48.766;8.674;2023-12-14T13:05:37;6.43;;;5.13;;
10596;SDS011;5346;48.766;8.674;2023-12-14T13:08:12;9.07;;;5.37;;
10596;SDS011;5346;48.766;8.674;2023-12-14T13:10:54;7.53;;;5.20;;
10596;SDS011;5346;48.766;8.674;2023-12-14T13:13:28;7.53;;;5.77;;
10596;SDS011;5346;48.766;8.674;2023-12-14T13:15:57;9.80;;;5.93;;
10596;SDS011;5346;48.766;8.674;2023-12-14T13:18:33;7.93;;;6.00;;
10596;SDS011;5346;48.766;8.674;2023-12-14T13:21:04;8.60;;;6.33;;
10596;SDS011;5346;48.766;8.674;2023-12-14T13:23:38;8.70;;;6.30;;
10596;SDS011;5346;48.766;8.674;2023-12-14T13:26:13;8.33;;;5.93;;
10596;SDS011;5346;48.766;8.674;2023-12-14T13:28:41;8.60;;;5.77;;
10596;SDS011;5346;48.766;8.674;2023-12-14T13:31:15;6.57;;;5.37;;
10596;SDS011;5346;48.766;8.674;2023-12-14T13:33:49;6.67;;;5.17;;
10596;SDS011;5346;48.766;8.674;2023-12-14T13:36:18;7.87;;;6.00;;
10596;SDS011;5346;48.766;8.674;2023-12-14T13:38:53;7.53;;;5.87;;
10596;SDS011;5346;48.766;8.674;2023-12-14T13:41:20;6.73;;;5.50;;
10596;SDS011;5346;48.766;8.674;2023-12-14T13:43:54;6.57;;;5.33;;
10596;SDS011;5346;48.766;8.674;2023-12-14T13:46:29;5.83;;;4.97;;
10596;SDS011;5346;48.766;8.674;2023-12-14T13:49:09;5.70;;;4.97;;
10596;SDS011;5346;48.766;8.674;2023-12-14T13:51:50;4.87;;;3.87;;
10596;SDS011;5346;48.766;8.674;2023-12-14T13:54:24;5.57;;;3.67;;
10596;SDS011;5346;48.766;8.674;2023-12-14T13:56:52;6.00;;;4.33;;
10596;SDS011;5346;48.766;8.674;2023-12-14T13:59:28;5.30;;;4.53;;
10596;SDS011;5346;48.766;8.674;2023-12-14T14:01:56;6.77;;;4.47;;
10596;SDS011;5346;48.766;8.674;2023-12-14T14:04:32;6.37;;;5.07;;
10596;SDS011;5346;48.766;8.674;2023-12-14T14:07:06;6.33;;;4.97;;
10596;SDS011;5346;48.766;8.674;2023-12-14T14:09:33;6.47;;;5.03;;
10596;SDS011;5346;48.766;8.674;2023-12-14T14:12:08;7.50;;;4.73;;
10596;SDS011;5346;48.766;8.674;2023-12-14T14:14:35;6.97;;;5.23;;
10596;SDS011;5346;48.766;8.674;2023-12-14T14:17:10;8.70;;;5.43;;
10596;SDS011;5346;48.766;8.674;2023-12-14T14:19:38;7.10;;;5.53;;
10596;SDS011;5346;48.766;8.674;2023-12-14T14:22:13;9.97;;;6.67;;
10596;SDS011;5346;48.766;8.674;2023-12-14T14:24:50;7.50;;;5.97;;
10596;SDS011;5346;48.766;8.674;2023-12-14T14:27:24;7.07;;;5.63;;
10596;SDS011;5346;48.766;8.674;2023-12-14T14:29:51;7.97;;;5.97;;
10596;SDS011;5346;48.766;8.674;2023-12-14T14:32:29;8.93;;;5.50;;
10596;SDS011;5346;48.766;8.674;2023-12-14T14:35:08;17.00;;;11.67;;
10596;SDS011;5346;48.766;8.674;2023-12-14T14:37:42;7.77;;;5.73;;
10596;SDS011;5346;48.766;8.674;2023-12-14T14:40:16;14.37;;;10.50;;
10596;SDS011;5346;48.766;8.674;2023-12-14T14:42:50;9.77;;;7.20;;
10596;SDS011;5346;48.766;8.674;2023-12-14T14:45:20;8.97;;;6.37;;
10596;SDS011;5346;48.766;8.674;2023-12-14T14:48:01;8.90;;;6.43;;
10596;SDS011;5346;48.766;8.674;2023-12-14T14:50:42;10.17;;;6.77;;
10596;SDS011;5346;48.766;8.674;2023-12-14T14:53:21;8.60;;;6.07;;
10596;SDS011;5346;48.766;8.674;2023-12-14T14:55:55;9.00;;;6.63;;
10596;SDS011;5346;48.766;8.674;2023-12-14T14:58:22;10.80;;;7.47;;
10596;SDS011;5346;48.766;8.674;2023-12-14T15:00:56;9.27;;;6.87;;
10596;SDS011;5346;48.766;8.674;2023-12-14T15:03:24;10.00;;;7.10;;
10596;SDS011;5346;48.766;8.674;2023-12-14T15:05:52;11.63;;;7.83;;
10596;SDS011;5346;48.766;8.674;2023-12-14T15:08:26;9.53;;;6.63;;
10596;SDS011;5346;48.766;8.674;2023-12-14T15:11:00;8.83;;;6.60;;
10596;SDS011;5346;48.766;8.674;2023-12-14T15:13:34;17.03;;;11.10;;
10596;SDS011;5346;48.766;8.674;2023-12-14T15:16:09;15.30;;;8.43;;
10596;SDS011;5346;48.766;8.674;2023-12-14T15:18:37;21.17;;;14.43;;
10596;SDS011;5346;48.766;8.674;2023-12-14T15:21:14;9.83;;;6.87;;
10596;SDS011;5346;48.766;8.674;2023-12-14T15:23:42;10.33;;;7.33;;
10596;SDS011;5346;48.766;8.674;2023-12-14T15:26:19;13.43;;;9.73;;
10596;SDS011;5346;48.766;8.674;2023-12-14T15:28:49;7.03;;;5.53;;
10596;SDS011;5346;48.766;8.674;2023-12-14T15:31:23;8.97;;;5.97;;
10596;SDS011;5346;48.766;8.674;2023-12-14T15:33:50;10.73;;;5.40;;
10596;SDS011;5346;48.766;8.674;2023-12-14T15:36:25;7.60;;;5.27;;
10596;SDS011;5346;48.766;8.674;2023-12-14T15:38:56;8.80;;;5.40;;
10596;SDS011;5346;48.766;8.674;2023-12-14T15:41:33;6.97;;;5.20;;
10596;SDS011;5346;48.766;8.674;2023-12-14T15:44:11;8.40;;;6.03;;
10596;SDS011;5346;48.766;8.674;2023-12-14T15:46:45;8.87;;;6.17;;